createdAt,value
2018-05-25T00:00:08.892Z,0.00
2018-05-25T00:01:08.847Z,0.00
2018-05-25T00:02:08.809Z,0.00
2018-05-25T00:03:08.780Z,0.00
2018-05-25T00:04:08.728Z,0.00
2018-05-25T00:05:08.688Z,0.00
2018-05-25T00:06:08.649Z,0.00
2018-05-25T00:07:08.609Z,0.00
2018-05-25T00:08:08.566Z,0.00
2018-05-25T00:09:08.524Z,0.00
2018-05-25T00:10:08.497Z,0.00
2018-05-25T00:11:08.446Z,0.00
2018-05-25T00:12:08.403Z,0.00
2018-05-25T00:13:08.363Z,0.00
2018-05-25T00:14:08.338Z,0.00
2018-05-25T00:15:08.285Z,0.00
2018-05-25T00:16:08.248Z,0.00
2018-05-25T00:17:08.201Z,0.00
2018-05-25T00:18:08.162Z,0.00
2018-05-25T00:19:08.124Z,0.00
2018-05-25T00:20:08.081Z,0.00
2018-05-25T00:21:08.043Z,0.00
2018-05-25T00:22:08.003Z,0.00
2018-05-25T00:23:07.958Z,0.00
2018-05-25T00:24:07.920Z,0.00
2018-05-25T00:25:07.876Z,0.00
2018-05-25T00:26:07.837Z,0.00
2018-05-25T00:27:07.795Z,0.00
2018-05-25T00:28:07.754Z,0.00
2018-05-25T00:29:07.716Z,0.00
2018-05-25T00:30:07.678Z,0.00
2018-05-25T00:31:07.636Z,0.00
2018-05-25T00:32:07.592Z,0.00
2018-05-25T00:33:07.552Z,0.00
2018-05-25T00:34:07.509Z,0.00
2018-05-25T00:35:07.472Z,0.00
2018-05-25T00:36:07.432Z,0.00
2018-05-25T00:37:07.390Z,0.00
2018-05-25T00:38:07.348Z,0.00
2018-05-25T00:39:07.307Z,0.00
2018-05-25T00:40:07.270Z,0.00
2018-05-25T00:41:07.226Z,0.00
2018-05-25T00:42:07.185Z,0.00
2018-05-25T00:43:07.145Z,0.00
2018-05-25T00:44:07.105Z,0.00
2018-05-25T00:45:07.068Z,0.00
2018-05-25T00:46:07.024Z,0.00
2018-05-25T00:47:06.983Z,0.00
2018-05-25T00:48:06.944Z,0.00
2018-05-25T00:49:06.905Z,0.00
2018-05-25T00:50:06.864Z,0.00
2018-05-25T00:51:06.821Z,0.00
2018-05-25T00:52:06.786Z,0.00
2018-05-25T00:53:06.765Z,0.00
2018-05-25T00:54:06.697Z,0.00
2018-05-25T00:55:06.659Z,0.00
2018-05-25T00:56:06.633Z,0.00
2018-05-25T00:57:06.581Z,0.00
2018-05-25T00:58:06.535Z,0.00
2018-05-25T00:59:06.499Z,0.00
2018-05-25T01:00:06.453Z,0.00
2018-05-25T01:01:06.413Z,0.00
2018-05-25T01:02:06.380Z,0.00
2018-05-25T01:03:06.331Z,0.00
2018-05-25T01:04:06.290Z,0.00
2018-05-25T01:05:06.252Z,0.00
2018-05-25T01:06:06.211Z,0.00
2018-05-25T01:07:06.167Z,0.00
2018-05-25T01:08:06.127Z,0.00
2018-05-25T01:09:06.092Z,0.00
2018-05-25T01:10:06.047Z,0.00
2018-05-25T01:11:06.009Z,0.00
2018-05-25T01:12:05.966Z,0.00
2018-05-25T01:13:05.931Z,0.00
2018-05-25T01:14:05.891Z,0.00
2018-05-25T01:15:05.866Z,0.00
2018-05-25T01:16:05.805Z,0.00
2018-05-25T01:17:05.761Z,0.00
2018-05-25T01:18:05.724Z,0.00
2018-05-25T01:19:05.689Z,0.00
2018-05-25T01:20:05.640Z,0.00
2018-05-25T01:21:05.601Z,0.00
2018-05-25T01:22:05.557Z,0.00
2018-05-25T01:23:05.519Z,0.00
2018-05-25T01:24:05.481Z,0.00
2018-05-25T01:25:05.441Z,0.00
2018-05-25T01:26:05.402Z,0.00
2018-05-25T01:27:05.354Z,0.00
2018-05-25T01:28:05.316Z,0.00
2018-05-25T01:29:05.273Z,0.00
2018-05-25T01:30:05.243Z,0.00
2018-05-25T01:31:05.192Z,0.00
2018-05-25T01:32:05.154Z,0.00
2018-05-25T01:33:05.114Z,0.00
2018-05-25T01:34:05.069Z,0.00
2018-05-25T01:35:05.029Z,0.00
2018-05-25T01:36:04.988Z,0.00
2018-05-25T01:37:04.948Z,0.00
2018-05-25T01:38:04.913Z,0.00
2018-05-25T01:39:04.874Z,0.00
2018-05-25T01:40:04.827Z,0.00
2018-05-25T01:41:04.791Z,0.00
2018-05-25T01:42:04.745Z,0.00
2018-05-25T01:43:04.703Z,0.00
2018-05-25T01:44:04.663Z,0.00
2018-05-25T01:45:04.627Z,0.00
2018-05-25T01:46:04.585Z,0.00
2018-05-25T01:47:04.552Z,0.00
2018-05-25T01:48:04.503Z,0.00
2018-05-25T01:49:04.462Z,0.00
2018-05-25T01:50:04.418Z,0.00
2018-05-25T01:51:04.378Z,0.00
2018-05-25T01:52:04.340Z,0.00
2018-05-25T01:53:04.301Z,0.00
2018-05-25T01:54:04.257Z,0.00
2018-05-25T01:55:04.215Z,0.00
2018-05-25T01:56:04.178Z,0.00
2018-05-25T01:57:04.134Z,0.00
2018-05-25T01:58:04.095Z,0.00
2018-05-25T01:59:04.053Z,0.00
2018-05-25T02:00:04.011Z,0.00
2018-05-25T02:01:03.970Z,0.00
2018-05-25T02:02:03.929Z,0.00
2018-05-25T02:03:03.891Z,0.00
2018-05-25T02:04:03.854Z,0.00
2018-05-25T02:05:03.812Z,0.00
2018-05-25T02:06:03.768Z,0.00
2018-05-25T02:07:03.726Z,0.00
2018-05-25T02:08:03.689Z,0.00
2018-05-25T02:09:03.645Z,0.00
2018-05-25T02:10:03.603Z,0.00
2018-05-25T02:11:03.566Z,0.00
2018-05-25T02:12:03.527Z,0.00
2018-05-25T02:13:03.485Z,0.00
2018-05-25T02:14:03.442Z,0.00
2018-05-25T02:15:03.401Z,0.00
2018-05-25T02:16:03.360Z,0.00
2018-05-25T02:17:03.327Z,0.00
2018-05-25T02:18:03.278Z,0.00
2018-05-25T02:19:03.238Z,0.00
2018-05-25T02:20:03.198Z,0.00
2018-05-25T02:21:03.157Z,0.00
2018-05-25T02:22:03.116Z,0.00
2018-05-25T02:23:03.075Z,0.00
2018-05-25T02:24:03.034Z,0.00
2018-05-25T02:25:02.995Z,0.00
2018-05-25T02:26:02.954Z,0.00
2018-05-25T02:27:02.913Z,0.00
2018-05-25T02:28:02.875Z,0.00
2018-05-25T02:29:02.832Z,0.00
2018-05-25T02:30:02.791Z,0.00
2018-05-25T02:31:02.751Z,0.00
2018-05-25T02:32:02.711Z,0.00
2018-05-25T02:33:02.680Z,0.00
2018-05-25T02:34:02.626Z,0.00
2018-05-25T02:35:02.586Z,0.00
2018-05-25T02:36:02.550Z,0.00
2018-05-25T02:37:02.507Z,0.00
2018-05-25T02:38:02.469Z,0.00
2018-05-25T02:39:02.424Z,0.00
2018-05-25T02:40:02.386Z,0.00
2018-05-25T02:41:02.344Z,0.00
2018-05-25T02:42:02.304Z,0.00
2018-05-25T02:43:02.263Z,0.00
2018-05-25T02:44:02.223Z,0.00
2018-05-25T02:45:02.180Z,0.00
2018-05-25T02:46:02.141Z,0.00
2018-05-25T02:47:02.098Z,0.00
2018-05-25T02:48:02.058Z,0.00
2018-05-25T02:49:02.017Z,0.00
2018-05-25T02:50:01.976Z,0.00
2018-05-25T02:51:01.935Z,0.00
2018-05-25T02:52:01.896Z,0.00
2018-05-25T02:53:01.854Z,0.00
2018-05-25T02:54:01.811Z,0.00
2018-05-25T02:55:01.776Z,0.00
2018-05-25T02:56:01.731Z,0.00
2018-05-25T02:57:01.691Z,0.00
2018-05-25T02:58:01.650Z,0.00
2018-05-25T02:59:01.610Z,0.00
2018-05-25T03:00:01.569Z,0.00
2018-05-25T03:01:01.529Z,0.00
2018-05-25T03:02:01.487Z,0.00
2018-05-25T03:03:01.446Z,0.00
2018-05-25T03:04:01.415Z,4.00
2018-05-25T03:05:01.370Z,4.00
2018-05-25T03:06:01.324Z,4.00
2018-05-25T03:07:01.285Z,0.00
2018-05-25T03:08:01.242Z,0.00
2018-05-25T03:09:01.203Z,4.00
2018-05-25T03:10:01.161Z,4.00
2018-05-25T03:11:01.121Z,4.00
2018-05-25T03:12:01.078Z,8.00
2018-05-25T03:13:01.038Z,4.00
2018-05-25T03:14:00.997Z,4.00
2018-05-25T03:15:00.956Z,8.00
2018-05-25T03:16:00.918Z,4.00
2018-05-25T03:17:00.910Z,8.00
2018-05-25T03:18:00.833Z,8.00
2018-05-25T03:19:00.792Z,12.00
2018-05-25T03:20:00.751Z,8.00
2018-05-25T03:21:00.710Z,8.00
2018-05-25T03:22:00.673Z,8.00
2018-05-25T03:23:00.628Z,12.00
2018-05-25T03:24:00.592Z,12.00
2018-05-25T03:25:00.548Z,12.00
2018-05-25T03:26:00.512Z,12.00
2018-05-25T03:27:00.464Z,12.00
2018-05-25T03:28:00.426Z,16.00
2018-05-25T03:29:00.387Z,20.00
2018-05-25T03:30:00.342Z,16.00
2018-05-25T03:31:00.305Z,20.00
2018-05-25T03:32:00.276Z,20.00
2018-05-25T03:33:00.226Z,24.00
2018-05-25T03:34:00.181Z,24.00
2018-05-25T03:35:00.138Z,20.00
2018-05-25T03:36:00.097Z,24.00
2018-05-25T03:37:00.057Z,28.00
2018-05-25T03:38:00.013Z,28.00
2018-05-25T03:38:59.978Z,28.00
2018-05-25T03:39:59.933Z,32.00
2018-05-25T03:40:59.893Z,36.00
2018-05-25T03:41:59.856Z,40.00
2018-05-25T03:42:59.809Z,40.00
2018-05-25T03:43:59.769Z,44.00
2018-05-25T03:44:59.731Z,44.00
2018-05-25T03:45:59.688Z,48.00
2018-05-25T03:46:59.647Z,52.00
2018-05-25T03:47:59.608Z,56.00
2018-05-25T03:48:59.568Z,64.00
2018-05-25T03:49:59.524Z,68.00
2018-05-25T03:50:59.483Z,68.00
2018-05-25T03:51:59.443Z,72.00
2018-05-25T03:52:59.403Z,76.00
2018-05-25T03:53:59.361Z,84.00
2018-05-25T03:54:59.324Z,88.00
2018-05-25T03:55:59.282Z,88.00
2018-05-25T03:56:59.239Z,88.00
2018-05-25T03:57:59.326Z,92.00
2018-05-25T03:58:59.159Z,92.00
2018-05-25T03:59:59.116Z,96.00
2018-05-25T04:00:59.076Z,96.00
2018-05-25T04:01:59.033Z,100.00
2018-05-25T04:02:59.003Z,96.00
2018-05-25T04:03:58.956Z,96.00
2018-05-25T04:04:58.912Z,100.00
2018-05-25T04:05:58.873Z,100.00
2018-05-25T04:06:58.831Z,100.00
2018-05-25T04:07:58.788Z,100.00
2018-05-25T04:08:58.754Z,100.00
2018-05-25T04:09:58.709Z,104.00
2018-05-25T04:10:58.668Z,108.00
2018-05-25T04:11:58.627Z,112.00
2018-05-25T04:12:58.585Z,120.00
2018-05-25T04:13:58.548Z,124.00
2018-05-25T04:14:58.505Z,132.00
2018-05-25T04:15:58.464Z,136.00
2018-05-25T04:16:58.425Z,136.00
2018-05-25T04:17:58.379Z,140.00
2018-05-25T04:18:58.340Z,144.00
2018-05-25T04:19:58.298Z,152.00
2018-05-25T04:20:58.261Z,156.00
2018-05-25T04:21:58.221Z,168.00
2018-05-25T04:22:58.176Z,176.00
2018-05-25T04:23:58.139Z,188.00
2018-05-25T04:24:58.098Z,196.00
2018-05-25T04:25:58.057Z,204.00
2018-05-25T04:26:58.016Z,212.00
2018-05-25T04:27:57.974Z,224.00
2018-05-25T04:28:57.932Z,232.00
2018-05-25T04:29:57.892Z,244.00
2018-05-25T04:30:57.852Z,260.00
2018-05-25T04:31:57.819Z,276.00
2018-05-25T04:32:57.772Z,296.00
2018-05-25T04:33:57.728Z,316.00
2018-05-25T04:34:57.693Z,332.00
2018-05-25T04:35:57.651Z,344.00
2018-05-25T04:36:57.606Z,352.00
2018-05-25T04:37:57.564Z,360.00
2018-05-25T04:38:57.526Z,372.00
2018-05-25T04:39:57.484Z,376.00
2018-05-25T04:40:57.450Z,388.00
2018-05-25T04:41:57.402Z,400.00
2018-05-25T04:42:57.367Z,412.00
2018-05-25T04:43:57.323Z,428.00
2018-05-25T04:44:57.278Z,444.00
2018-05-25T04:45:57.238Z,460.00
2018-05-25T04:46:57.226Z,476.00
2018-05-25T04:47:57.157Z,492.00
2018-05-25T04:48:57.120Z,504.00
2018-05-25T04:49:57.076Z,512.00
2018-05-25T04:50:57.035Z,516.00
2018-05-25T04:51:56.996Z,520.00
2018-05-25T04:52:56.953Z,528.00
2018-05-25T04:53:56.914Z,532.00
2018-05-25T04:54:56.871Z,540.00
2018-05-25T04:55:56.832Z,548.00
2018-05-25T04:56:56.795Z,552.00
2018-05-25T04:57:56.764Z,564.00
2018-05-25T04:58:56.711Z,572.00
2018-05-25T04:59:56.681Z,584.00
2018-05-25T05:00:56.649Z,588.00
2018-05-25T05:01:56.592Z,592.00
2018-05-25T05:02:56.545Z,600.00
2018-05-25T05:03:56.506Z,604.00
2018-05-25T05:04:56.511Z,608.00
2018-05-25T05:05:56.424Z,612.00
2018-05-25T05:06:56.384Z,616.00
2018-05-25T05:07:56.343Z,624.00
2018-05-25T05:08:56.300Z,628.00
2018-05-25T05:09:56.262Z,636.00
2018-05-25T05:10:56.218Z,636.00
2018-05-25T05:11:56.179Z,644.00
2018-05-25T05:12:56.145Z,648.00
2018-05-25T05:13:56.101Z,648.00
2018-05-25T05:14:56.057Z,656.00
2018-05-25T05:15:56.027Z,660.00
2018-05-25T05:16:55.977Z,668.00
2018-05-25T05:17:55.936Z,676.00
2018-05-25T05:18:55.893Z,684.00
2018-05-25T05:19:55.857Z,688.00
2018-05-25T05:20:55.815Z,700.00
2018-05-25T05:21:55.790Z,696.00
2018-05-25T05:22:55.731Z,708.00
2018-05-25T05:23:55.692Z,712.00
2018-05-25T05:24:55.649Z,712.00
2018-05-25T05:25:55.615Z,712.00
2018-05-25T05:26:55.569Z,712.00
2018-05-25T05:27:55.529Z,708.00
2018-05-25T05:28:55.490Z,704.00
2018-05-25T05:29:55.446Z,700.00
2018-05-25T05:30:55.413Z,700.00
2018-05-25T05:31:55.377Z,704.00
2018-05-25T05:32:55.338Z,712.00
2018-05-25T05:33:55.285Z,712.00
2018-05-25T05:34:55.244Z,712.00
2018-05-25T05:35:55.202Z,708.00
2018-05-25T05:36:55.167Z,732.00
2018-05-25T05:37:55.123Z,744.00
2018-05-25T05:38:55.084Z,756.00
2018-05-25T05:39:55.048Z,776.00
2018-05-25T05:40:55.056Z,788.00
2018-05-25T05:41:54.980Z,796.00
2018-05-25T05:42:54.930Z,804.00
2018-05-25T05:43:54.886Z,808.00
2018-05-25T05:44:54.842Z,808.00
2018-05-25T05:45:54.799Z,812.00
2018-05-25T05:46:54.758Z,816.00
2018-05-25T05:47:54.721Z,812.00
2018-05-25T05:48:54.679Z,816.00
2018-05-25T05:49:54.635Z,824.00
2018-05-25T05:50:54.612Z,828.00
2018-05-25T05:51:54.557Z,832.00
2018-05-25T05:52:54.517Z,836.00
2018-05-25T05:53:54.475Z,844.00
2018-05-25T05:54:54.435Z,848.00
2018-05-25T05:55:54.418Z,860.00
2018-05-25T05:56:54.358Z,872.00
2018-05-25T05:57:54.312Z,884.00
2018-05-25T05:58:54.275Z,896.00
2018-05-25T05:59:54.232Z,904.00
2018-05-25T06:00:54.191Z,912.00
2018-05-25T06:01:54.152Z,916.00
2018-05-25T06:02:54.115Z,916.00
2018-05-25T06:03:54.075Z,916.00
2018-05-25T06:04:54.031Z,912.00
2018-05-25T06:05:53.995Z,912.00
2018-05-25T06:06:53.949Z,916.00
2018-05-25T06:07:53.909Z,920.00
2018-05-25T06:08:53.871Z,924.00
2018-05-25T06:09:53.830Z,932.00
2018-05-25T06:10:53.790Z,944.00
2018-05-25T06:11:53.749Z,948.00
2018-05-25T06:12:53.710Z,948.00
2018-05-25T06:13:53.669Z,952.00
2018-05-25T06:14:53.626Z,956.00
2018-05-25T06:15:53.589Z,964.00
2018-05-25T06:16:53.547Z,968.00
2018-05-25T06:17:53.507Z,968.00
2018-05-25T06:18:53.467Z,976.00
2018-05-25T06:19:53.426Z,980.00
2018-05-25T06:20:53.399Z,984.00
2018-05-25T06:21:53.348Z,988.00
2018-05-25T06:22:53.305Z,992.00
2018-05-25T06:23:53.266Z,996.00
2018-05-25T06:24:53.227Z,1000.00
2018-05-25T06:25:53.190Z,1008.00
2018-05-25T06:26:53.145Z,1012.00
2018-05-25T06:27:53.106Z,1016.00
2018-05-25T06:28:53.067Z,1020.00
2018-05-25T06:29:53.028Z,1020.00
2018-05-25T06:30:52.986Z,1024.00
2018-05-25T06:31:52.945Z,1024.00
2018-05-25T06:32:52.912Z,1028.00
2018-05-25T06:33:52.869Z,1032.00
2018-05-25T06:34:52.850Z,1036.00
2018-05-25T06:35:52.788Z,1048.00
2018-05-25T06:36:52.746Z,1060.00
2018-05-25T06:37:52.707Z,1068.00
2018-05-25T06:38:52.669Z,1076.00
2018-05-25T06:39:52.631Z,1088.00
2018-05-25T06:40:52.589Z,1096.00
2018-05-25T06:41:52.546Z,1072.00
2018-05-25T06:42:52.512Z,1048.00
2018-05-25T06:43:52.467Z,1096.00
2018-05-25T06:44:52.442Z,1104.00
2018-05-25T06:45:52.395Z,1116.00
2018-05-25T06:46:52.355Z,1128.00
2018-05-25T06:47:52.313Z,1140.00
2018-05-25T06:48:52.306Z,1140.00
2018-05-25T06:49:52.240Z,1152.00
2018-05-25T06:50:52.194Z,1160.00
2018-05-25T06:51:52.156Z,1168.00
2018-05-25T06:52:52.117Z,1176.00
2018-05-25T06:53:52.068Z,1180.00
2018-05-25T06:54:52.034Z,1176.00
2018-05-25T06:55:51.994Z,1184.00
2018-05-25T06:56:51.951Z,1188.00
2018-05-25T06:57:51.924Z,1192.00
2018-05-25T06:58:51.871Z,1208.00
2018-05-25T06:59:51.832Z,1216.00
2018-05-25T07:00:51.793Z,1224.00
2018-05-25T07:01:51.756Z,1252.00
2018-05-25T07:02:51.714Z,1264.00
2018-05-25T07:03:51.681Z,1272.00
2018-05-25T07:04:51.634Z,1272.00
2018-05-25T07:05:51.599Z,1276.00
2018-05-25T07:06:51.557Z,1284.00
2018-05-25T07:07:51.522Z,1288.00
2018-05-25T07:08:51.477Z,1296.00
2018-05-25T07:09:51.439Z,1296.00
2018-05-25T07:10:51.400Z,1316.00
2018-05-25T07:11:51.363Z,1320.00
2018-05-25T07:12:51.319Z,1328.00
2018-05-25T07:13:51.280Z,1320.00
2018-05-25T07:14:51.245Z,1344.00
2018-05-25T07:15:51.206Z,1308.00
2018-05-25T07:16:51.164Z,1364.00
2018-05-25T07:17:51.125Z,1144.00
2018-05-25T07:18:51.088Z,1248.00
2018-05-25T07:19:51.051Z,1384.00
2018-05-25T07:20:51.009Z,1392.00
2018-05-25T07:21:50.970Z,1392.00
2018-05-25T07:22:50.928Z,1408.00
2018-05-25T07:23:50.890Z,1288.00
2018-05-25T07:24:50.853Z,1384.00
2018-05-25T07:25:50.812Z,1412.00
2018-05-25T07:26:50.811Z,1468.00
2018-05-25T07:27:50.734Z,1456.00
2018-05-25T07:28:50.694Z,1312.00
2018-05-25T07:29:50.654Z,1560.00
2018-05-25T07:30:50.617Z,1620.00
2018-05-25T07:31:50.577Z,1668.00
2018-05-25T07:32:50.542Z,1596.00
2018-05-25T07:33:50.500Z,1308.00
2018-05-25T07:34:50.461Z,1328.00
2018-05-25T07:35:50.427Z,1264.00
2018-05-25T07:36:50.384Z,1168.00
2018-05-25T07:37:50.344Z,1144.00
2018-05-25T07:38:50.306Z,1168.00
2018-05-25T07:39:50.267Z,1500.00
2018-05-25T07:40:50.235Z,1364.00
2018-05-25T07:41:50.190Z,1204.00
2018-05-25T07:42:50.152Z,1292.00
2018-05-25T07:43:50.112Z,1364.00
2018-05-25T07:44:50.072Z,1280.00
2018-05-25T07:45:50.039Z,1264.00
2018-05-25T07:46:49.997Z,1252.00
2018-05-25T07:47:49.956Z,1240.00
2018-05-25T07:48:49.920Z,1240.00
2018-05-25T07:49:49.878Z,1268.00
2018-05-25T07:50:49.842Z,1328.00
2018-05-25T07:51:49.805Z,1376.00
2018-05-25T07:52:49.766Z,1428.00
2018-05-25T07:53:49.725Z,1524.00
2018-05-25T07:54:49.702Z,1612.00
2018-05-25T07:55:49.647Z,1660.00
2018-05-25T07:56:49.609Z,1764.00
2018-05-25T07:57:49.569Z,1860.00
2018-05-25T07:58:49.530Z,1872.00
2018-05-25T07:59:49.494Z,1880.00
2018-05-25T08:00:49.454Z,1800.00
2018-05-25T08:01:49.416Z,1760.00
2018-05-25T08:02:49.376Z,1772.00
2018-05-25T08:03:49.339Z,1880.00
2018-05-25T08:04:49.303Z,1900.00
2018-05-25T08:05:49.261Z,1952.00
2018-05-25T08:06:49.222Z,1996.00
2018-05-25T08:07:49.188Z,1968.00
2018-05-25T08:08:49.146Z,1988.00
2018-05-25T08:09:49.109Z,2004.00
2018-05-25T08:10:49.068Z,2032.00
2018-05-25T08:11:49.032Z,2052.00
2018-05-25T08:12:48.993Z,2716.00
2018-05-25T08:13:48.955Z,2984.00
2018-05-25T08:14:48.915Z,3044.00
2018-05-25T08:15:48.879Z,2960.00
2018-05-25T08:16:48.840Z,2792.00
2018-05-25T08:17:48.806Z,2732.00
2018-05-25T08:18:48.764Z,2768.00
2018-05-25T08:19:48.729Z,2100.00
2018-05-25T08:20:48.696Z,2024.00
2018-05-25T08:21:48.721Z,1944.00
2018-05-25T08:22:48.612Z,1952.00
2018-05-25T08:23:48.574Z,1972.00
2018-05-25T08:24:48.538Z,1936.00
2018-05-25T08:25:48.498Z,1872.00
2018-05-25T08:26:48.460Z,1848.00
2018-05-25T08:27:48.423Z,1844.00
2018-05-25T08:28:48.386Z,1812.00
2018-05-25T08:29:48.347Z,1796.00
2018-05-25T08:30:48.311Z,1776.00
2018-05-25T08:32:48.233Z,1816.00
2018-05-25T08:33:48.242Z,1696.00
2018-05-25T08:34:48.158Z,1592.00
2018-05-25T08:35:48.124Z,1596.00
2018-05-25T08:36:48.085Z,1656.00
2018-05-25T08:37:48.045Z,1748.00
2018-05-25T08:38:48.014Z,1840.00
2018-05-25T08:39:47.969Z,1948.00
2018-05-25T08:40:47.932Z,2040.00
2018-05-25T08:41:47.894Z,2068.00
2018-05-25T08:42:47.861Z,2068.00
2018-05-25T08:43:47.819Z,2080.00
2018-05-25T08:44:47.783Z,2092.00
2018-05-25T08:45:47.746Z,2096.00
2018-05-25T08:46:47.705Z,2048.00
2018-05-25T08:47:47.669Z,1972.00
2018-05-25T08:48:47.631Z,1896.00
2018-05-25T08:49:47.595Z,1852.00
2018-05-25T08:50:47.556Z,1808.00
2018-05-25T08:51:47.518Z,1744.00
2018-05-25T08:52:47.483Z,1676.00
2018-05-25T08:53:47.443Z,1636.00
2018-05-25T08:54:47.406Z,1660.00
2018-05-25T08:55:47.368Z,1712.00
2018-05-25T08:56:47.331Z,1736.00
2018-05-25T08:57:47.292Z,1692.00
2018-05-25T08:58:47.256Z,1652.00
2018-05-25T08:59:47.218Z,1580.00
2018-05-25T09:00:47.181Z,1540.00
2018-05-25T09:01:47.141Z,1492.00
2018-05-25T09:03:47.067Z,1436.00
2018-05-25T09:04:47.033Z,1468.00
2018-05-25T09:05:46.996Z,1516.00
2018-05-25T09:06:46.999Z,1532.00
2018-05-25T09:07:46.917Z,1552.00
2018-05-25T09:08:46.882Z,1608.00
2018-05-25T09:09:46.845Z,1692.00
2018-05-25T09:10:46.808Z,1792.00
2018-05-25T09:11:46.770Z,1860.00
2018-05-25T09:12:46.730Z,1936.00
2018-05-25T09:13:46.690Z,1988.00
2018-05-25T09:14:46.656Z,2020.00
2018-05-25T09:15:46.618Z,2064.00
2018-05-25T09:16:46.582Z,2132.00
2018-05-25T09:17:46.542Z,2188.00
2018-05-25T09:18:46.505Z,2228.00
2018-05-25T09:19:46.468Z,2260.00
2018-05-25T09:20:46.432Z,2292.00
2018-05-25T09:21:46.443Z,2300.00
2018-05-25T09:22:46.355Z,2316.00
2018-05-25T09:23:46.323Z,2360.00
2018-05-25T09:24:46.280Z,2384.00
2018-05-25T09:25:46.244Z,2412.00
2018-05-25T09:26:46.205Z,2480.00
2018-05-25T09:27:46.168Z,3168.00
2018-05-25T09:28:46.130Z,3196.00
2018-05-25T09:29:46.098Z,2496.00
2018-05-25T09:30:46.099Z,2464.00
2018-05-25T09:31:46.021Z,2452.00
2018-05-25T09:32:45.983Z,2468.00
2018-05-25T09:33:45.945Z,2416.00
2018-05-25T09:34:45.907Z,2360.00
2018-05-25T09:35:45.870Z,2336.00
2018-05-25T09:36:45.854Z,2304.00
2018-05-25T09:37:45.813Z,2268.00
2018-05-25T09:38:45.761Z,2260.00
2018-05-25T09:39:45.724Z,2292.00
2018-05-25T09:40:45.687Z,2320.00
2018-05-25T09:41:45.649Z,2356.00
2018-05-25T09:42:45.613Z,2408.00
2018-05-25T09:43:45.574Z,2648.00
2018-05-25T09:44:45.542Z,2608.00
2018-05-25T09:45:45.504Z,2772.00
2018-05-25T09:46:45.463Z,2904.00
2018-05-25T09:47:45.427Z,3060.00
2018-05-25T09:48:45.395Z,3420.00
2018-05-25T09:49:45.352Z,3256.00
2018-05-25T09:50:45.319Z,3044.00
2018-05-25T09:51:45.280Z,2784.00
2018-05-25T09:52:45.244Z,2972.00
2018-05-25T09:53:45.206Z,2904.00
2018-05-25T09:54:45.168Z,3208.00
2018-05-25T09:55:45.135Z,3424.00
2018-05-25T09:56:45.096Z,4400.00
2018-05-25T09:57:45.060Z,4640.00
2018-05-25T09:58:45.029Z,4784.00
2018-05-25T09:59:44.987Z,3988.00
2018-05-25T10:00:44.950Z,3048.00
2018-05-25T10:01:44.912Z,2796.00
2018-05-25T10:02:44.877Z,2700.00
2018-05-25T10:03:44.845Z,2892.00
2018-05-25T10:04:44.804Z,4008.00
2018-05-25T10:05:44.766Z,3612.00
2018-05-25T10:06:44.731Z,3476.00
2018-05-25T10:07:44.694Z,3788.00
2018-05-25T10:08:44.659Z,2896.00
2018-05-25T10:09:44.622Z,2900.00
2018-05-25T10:10:44.590Z,3024.00
2018-05-25T10:11:44.557Z,2980.00
2018-05-25T10:12:44.526Z,2792.00
2018-05-25T10:13:44.476Z,2676.00
2018-05-25T10:14:44.441Z,2540.00
2018-05-25T10:15:44.407Z,2444.00
2018-05-25T10:16:44.369Z,2380.00
2018-05-25T10:17:44.333Z,2400.00
2018-05-25T10:18:44.298Z,2328.00
2018-05-25T10:19:44.263Z,2260.00
2018-05-25T10:20:44.236Z,2200.00
2018-05-25T10:21:44.190Z,2188.00
2018-05-25T10:22:44.153Z,2272.00
2018-05-25T10:23:44.123Z,2352.00
2018-05-25T10:24:44.082Z,2616.00
2018-05-25T10:25:44.054Z,2384.00
2018-05-25T10:26:44.014Z,2504.00
2018-05-25T10:27:43.975Z,2600.00
2018-05-25T10:28:43.992Z,2472.00
2018-05-25T10:29:43.904Z,2484.00
2018-05-25T10:30:43.868Z,2652.00
2018-05-25T10:31:43.833Z,2680.00
2018-05-25T10:32:43.798Z,2708.00
2018-05-25T10:33:43.765Z,2712.00
2018-05-25T10:34:43.725Z,2760.00
2018-05-25T10:35:43.690Z,2616.00
2018-05-25T10:36:43.656Z,2500.00
2018-05-25T10:37:43.617Z,2360.00
2018-05-25T10:38:43.583Z,2284.00
2018-05-25T10:39:43.543Z,2316.00
2018-05-25T10:40:43.508Z,2420.00
2018-05-25T10:41:43.475Z,2520.00
2018-05-25T10:42:43.439Z,2536.00
2018-05-25T10:43:43.402Z,2548.00
2018-05-25T10:44:43.368Z,2464.00
2018-05-25T10:45:43.385Z,2488.00
2018-05-25T10:46:43.293Z,2560.00
2018-05-25T10:47:43.257Z,2700.00
2018-05-25T10:48:43.311Z,2788.00
2018-05-25T10:49:43.187Z,2776.00
2018-05-25T10:50:43.153Z,2748.00
2018-05-25T10:51:43.114Z,2620.00
2018-05-25T10:52:43.089Z,2560.00
2018-05-25T10:53:43.048Z,2572.00
2018-05-25T10:54:43.007Z,2644.00
2018-05-25T10:55:42.969Z,2640.00
2018-05-25T10:56:42.935Z,2644.00
2018-05-25T10:57:42.900Z,2704.00
2018-05-25T10:58:42.860Z,2708.00
2018-05-25T10:59:42.825Z,2712.00
2018-05-25T11:00:42.798Z,2736.00
2018-05-25T11:01:42.753Z,2756.00
2018-05-25T11:02:42.716Z,2784.00
2018-05-25T11:03:42.720Z,2848.00
2018-05-25T11:04:42.650Z,2896.00
2018-05-25T11:05:42.609Z,2912.00
2018-05-25T11:06:42.576Z,2884.00
2018-05-25T11:07:42.538Z,2880.00
2018-05-25T11:08:42.503Z,2880.00
2018-05-25T11:09:42.465Z,2884.00
2018-05-25T11:10:42.433Z,2860.00
2018-05-25T11:11:42.397Z,2752.00
2018-05-25T11:12:42.365Z,2616.00
2018-05-25T11:13:42.321Z,2524.00
2018-05-25T11:14:42.294Z,2444.00
2018-05-25T11:15:42.248Z,2392.00
2018-05-25T11:16:42.215Z,2416.00
2018-05-25T11:17:42.178Z,2472.00
2018-05-25T11:18:42.143Z,2532.00
2018-05-25T11:19:42.109Z,2496.00
2018-05-25T11:20:42.070Z,2464.00
2018-05-25T11:21:42.031Z,2440.00
2018-05-25T11:22:41.997Z,2464.00
2018-05-25T11:23:41.962Z,2568.00
2018-05-25T11:24:41.927Z,2700.00
2018-05-25T11:25:41.889Z,2856.00
2018-05-25T11:26:41.854Z,2756.00
2018-05-25T11:28:41.783Z,2736.00
2018-05-25T11:29:41.744Z,2768.00
2018-05-25T11:30:41.709Z,2916.00
2018-05-25T11:31:41.671Z,3164.00
2018-05-25T11:32:41.640Z,3360.00
2018-05-25T11:33:41.604Z,3376.00
2018-05-25T11:34:41.563Z,3280.00
2018-05-25T11:35:41.530Z,3220.00
2018-05-25T11:36:41.493Z,3160.00
2018-05-25T11:37:41.458Z,3136.00
2018-05-25T11:38:41.448Z,4200.00
2018-05-25T11:39:41.393Z,5060.00
2018-05-25T11:40:41.350Z,3528.00
2018-05-25T11:41:41.314Z,3404.00
2018-05-25T11:42:41.286Z,3448.00
2018-05-25T11:43:41.240Z,3324.00
2018-05-25T11:44:41.209Z,3216.00
2018-05-25T11:45:41.168Z,3116.00
2018-05-25T11:46:41.149Z,3020.00
2018-05-25T11:47:41.099Z,2940.00
2018-05-25T11:48:41.061Z,2888.00
2018-05-25T11:49:41.023Z,2896.00
2018-05-25T11:50:40.989Z,2864.00
2018-05-25T11:51:40.952Z,2872.00
2018-05-25T11:52:40.918Z,2768.00
2018-05-25T11:53:40.882Z,2624.00
2018-05-25T11:54:40.845Z,2492.00
2018-05-25T11:55:40.808Z,2396.00
2018-05-25T11:56:40.772Z,2376.00
2018-05-25T11:57:40.736Z,2408.00
2018-05-25T11:58:40.702Z,2412.00
2018-05-25T11:59:40.665Z,2380.00
2018-05-25T12:00:40.639Z,2400.00
2018-05-25T12:01:40.599Z,2452.00
2018-05-25T12:02:40.574Z,2516.00
2018-05-25T12:03:40.521Z,2648.00
2018-05-25T12:04:40.487Z,2764.00
2018-05-25T12:05:40.450Z,2968.00
2018-05-25T12:06:40.427Z,3108.00
2018-05-25T12:07:40.383Z,2936.00
2018-05-25T12:08:40.344Z,3188.00
2018-05-25T12:09:40.318Z,3368.00
2018-05-25T12:10:40.275Z,3580.00
2018-05-25T12:11:40.266Z,3836.00
2018-05-25T12:12:40.210Z,4620.00
2018-05-25T12:13:40.180Z,5140.00
2018-05-25T12:14:40.140Z,5320.00
2018-05-25T12:15:40.098Z,2936.00
2018-05-25T12:16:40.065Z,3960.00
2018-05-25T12:17:40.034Z,5408.00
2018-05-25T12:18:39.994Z,5144.00
2018-05-25T12:19:39.959Z,5224.00
2018-05-25T12:20:39.918Z,5252.00
2018-05-25T12:21:39.882Z,4780.00
2018-05-25T12:22:39.859Z,3464.00
2018-05-25T12:23:39.823Z,3332.00
2018-05-25T12:24:39.789Z,3204.00
2018-05-25T12:25:39.744Z,2032.00
2018-05-25T12:26:39.703Z,2844.00
2018-05-25T12:27:39.669Z,3412.00
2018-05-25T12:28:39.634Z,4596.00
2018-05-25T12:29:39.598Z,4748.00
2018-05-25T12:30:39.572Z,4984.00
2018-05-25T12:31:39.531Z,5128.00
2018-05-25T12:32:39.500Z,5164.00